Time;durP1;ratioP1;P1;durP2;ratioP2;P2;SDS_P1;SDS_P2;PMS_P1;PMS_P2;Temp;Humidity;BMP_temperature;BMP_pressure;BME280_temperature;BME280_humidity;BME280_pressure;Samples;Min_cycle;Max_cycle;Signal;HPM_P1;HPM_P2
2021/07/03 00:01:17;;;;;;;4.15;2.30;;;563.80;1664.00;;;;;;4979296;28;20065;-76
2021/07/03 00:03:43;;;;;;;6.72;2.35;;;563.90;1664.00;;;;;;4965054;28;20027;-76
2021/07/03 00:06:08;;;;;;;9.70;2.28;;;563.60;1664.00;;;;;;4976930;28;20092;-77
2021/07/03 00:08:34;;;;;;;5.82;2.58;;;563.80;1664.00;;;;;;4974343;28;20027;-75
2021/07/03 00:11:02;;;;;;;4.75;2.75;;;563.60;1689.60;;;;;;4977956;28;20034;-76
2021/07/03 00:13:28;;;;;;;4.55;2.65;;;563.50;1689.60;;;;;;4977099;28;20033;-76
2021/07/03 00:15:54;;;;;;;9.95;2.70;;;563.30;1715.20;;;;;;4981557;28;20030;-76
2021/07/03 00:18:20;;;;;;;4.20;2.83;;;563.50;1689.60;;;;;;4980331;28;20469;-76
2021/07/03 00:20:46;;;;;;;5.93;2.83;;;563.60;1689.60;;;;;;4973959;28;20046;-78
2021/07/03 00:23:12;;;;;;;7.35;2.65;;;563.60;1664.00;;;;;;4978809;28;20035;-76
2021/07/03 00:25:39;;;;;;;5.10;2.67;;;563.60;1689.60;;;;;;4978421;28;20041;-76
2021/07/03 00:28:05;;;;;;;6.60;2.78;;;563.50;1689.60;;;;;;4974345;28;20031;-77
2021/07/03 00:30:31;;;;;;;6.68;2.55;;;563.40;1689.60;;;;;;4977743;28;20026;-76
2021/07/03 00:32:57;;;;;;;7.00;2.80;;;563.20;1715.20;;;;;;4976660;28;20443;-75
2021/07/03 00:35:23;;;;;;;8.65;3.28;;;563.20;1715.20;;;;;;4974031;28;20110;-76
2021/07/03 00:37:49;;;;;;;7.25;2.92;;;538.50;1689.60;;;;;;4973786;28;20031;-76
2021/07/03 00:40:15;;;;;;;10.32;3.28;;;563.20;1715.20;;;;;;4973837;28;20027;-76
2021/07/03 00:42:42;;;;;;;6.25;2.65;;;538.40;1689.60;;;;;;4974249;28;20026;-76
2021/07/03 00:45:09;;;;;;;10.18;3.65;;;563.40;1689.60;;;;;;4982547;28;20061;-76
2021/07/03 00:47:35;;;;;;;5.28;3.10;;;563.50;1689.60;;;;;;4980151;28;20077;-76
2021/07/03 00:50:02;;;;;;;5.15;2.88;;;563.30;1715.20;;;;;;4973472;28;20093;-76
2021/07/03 00:52:28;;;;;;;8.15;3.10;;;563.40;1715.20;;;;;;4978782;28;20635;-76
2021/07/03 00:54:54;;;;;;;7.75;3.72;;;563.50;1689.60;;;;;;4981855;28;20084;-76
2021/07/03 00:57:19;;;;;;;4.38;2.55;;;563.40;1715.20;;;;;;4973497;28;20105;-76
2021/07/03 00:59:47;;;;;;;5.35;2.35;;;563.40;1715.20;;;;;;4973427;28;20041;-75
2021/07/03 01:02:16;;;;;;;6.20;2.95;;;563.30;1715.20;;;;;;4973578;28;20042;-76
2021/07/03 01:04:42;;;;;;;5.30;2.90;;;538.50;1715.20;;;;;;4977072;28;20042;-77
2021/07/03 01:07:09;;;;;;;4.97;2.42;;;563.20;1715.20;;;;;;4978708;28;20384;-76
2021/07/03 01:09:36;;;;;;;7.05;3.22;;;538.50;1715.20;;;;;;4977993;28;20037;-77
2021/07/03 01:12:03;;;;;;;5.97;3.15;;;538.40;1715.20;;;;;;4969904;28;20050;-76
2021/07/03 01:14:28;;;;;;;5.68;3.00;;;538.30;1740.80;;;;;;4971816;28;20022;-77
2021/07/03 01:16:55;;;;;;;5.63;2.95;;;538.40;1715.20;;;;;;4978628;28;20504;-76
2021/07/03 01:19:21;;;;;;;4.90;3.10;;;538.50;1715.20;;;;;;4978442;28;20026;-76
2021/07/03 01:21:51;;;;;;;6.57;3.50;;;538.40;1715.20;;;;;;4977935;28;20031;-77
2021/07/03 01:24:18;;;;;;;6.15;2.83;;;538.30;1715.20;;;;;;4973251;28;20035;-77
2021/07/03 01:26:47;;;;;;;5.47;2.90;;;538.20;1740.80;;;;;;4972778;28;20054;-76
2021/07/03 01:29:13;;;;;;;5.78;2.85;;;538.10;1740.80;;;;;;4975947;28;20034;-77
2021/07/03 01:31:43;;;;;;;8.38;3.30;;;538.20;1740.80;;;;;;4978202;28;20031;-76
2021/07/03 01:34:09;;;;;;;6.30;2.83;;;538.10;1740.80;;;;;;4973093;28;20065;-76
2021/07/03 01:36:36;;;;;;;4.80;3.08;;;538.00;1740.80;;;;;;4972795;28;20018;-76
2021/07/03 01:39:04;;;;;;;6.63;2.97;;;538.00;1766.40;;;;;;4978299;28;20065;-76
2021/07/03 01:41:30;;;;;;;5.40;3.13;;;537.90;1766.40;;;;;;4978006;28;20500;-77
2021/07/03 01:43:55;;;;;;;10.25;3.60;;;537.90;1766.40;;;;;;4973318;28;20073;-78
2021/07/03 01:46:21;;;;;;;5.80;3.70;;;537.90;1766.40;;;;;;4974183;28;20034;-76
2021/07/03 01:48:47;;;;;;;6.78;3.20;;;537.90;1766.40;;;;;;4976674;28;20035;-76
2021/07/03 01:51:13;;;;;;;5.13;3.00;;;537.80;1792.00;;;;;;4973048;28;20031;-76
2021/07/03 01:53:39;;;;;;;4.18;2.58;;;537.90;1792.00;;;;;;4973053;28;20027;-77
2021/07/03 01:56:07;;;;;;;4.88;3.40;;;537.70;1792.00;;;;;;4973009;28;20129;-76
2021/07/03 01:58:32;;;;;;;4.93;3.40;;;537.70;1792.00;;;;;;4972270;28;20094;-79
2021/07/03 02:00:58;;;;;;;8.70;3.30;;;537.70;1792.00;;;;;;4973077;28;20043;-80
2021/07/03 02:03:25;;;;;;;4.88;3.40;;;537.70;1817.60;;;;;;4972895;28;20027;-75
2021/07/03 02:05:52;;;;;;;6.18;3.33;;;537.60;1817.60;;;;;;4962419;28;20030;-75
2021/07/03 02:08:18;;;;;;;4.57;3.28;;;512.90;1792.00;;;;;;4992709;28;20376;-76
2021/07/03 02:10:44;;;;;;;6.43;3.10;;;512.90;1817.60;;;;;;4992089;28;20620;-76
2021/07/03 02:13:10;;;;;;;6.28;3.22;;;512.80;1817.60;;;;;;4981886;28;20114;-75
2021/07/03 02:15:35;;;;;;;9.98;3.75;;;512.90;1817.60;;;;;;4989360;28;20388;-75
2021/07/03 02:18:02;;;;;;;7.75;3.75;;;512.80;1817.60;;;;;;4992587;28;20496;-75
2021/07/03 02:20:28;;;;;;;4.65;3.17;;;512.80;1817.60;;;;;;4992000;28;20078;-76
2021/07/03 02:22:54;;;;;;;7.82;3.70;;;512.80;1843.20;;;;;;4992447;28;20086;-76
2021/07/03 02:25:20;;;;;;;6.82;3.25;;;512.80;1843.20;;;;;;4992347;28;20105;-76
2021/07/03 02:27:46;;;;;;;5.63;3.15;;;512.60;1843.20;;;;;;4992342;28;20165;-76
2021/07/03 02:30:14;;;;;;;5.45;3.55;;;512.60;1843.20;;;;;;4992075;28;20069;-75
2021/07/03 02:32:40;;;;;;;5.90;3.13;;;512.50;1868.80;;;;;;4992031;28;20415;-76
2021/07/03 02:35:07;;;;;;;5.10;3.20;;;512.50;1868.80;;;;;;4992015;28;20116;-75
2021/07/03 02:37:34;;;;;;;7.88;3.50;;;512.50;1843.20;;;;;;4991790;28;20077;-74
2021/07/03 02:39:59;;;;;;;7.28;3.00;;;512.30;1868.80;;;;;;4992204;28;20027;-76
2021/07/03 02:42:25;;;;;;;6.60;3.70;;;512.30;1868.80;;;;;;4991792;28;20034;-75
2021/07/03 02:44:51;;;;;;;6.35;3.58;;;512.40;1868.80;;;;;;4992390;28;20112;-76
2021/07/03 02:47:17;;;;;;;5.30;3.63;;;512.40;1868.80;;;;;;4992011;28;20045;-75
2021/07/03 02:49:42;;;;;;;6.00;3.40;;;512.30;1868.80;;;;;;4992006;28;20019;-76
2021/07/03 02:52:08;;;;;;;7.00;3.53;;;512.20;1868.80;;;;;;4991685;28;20026;-76
2021/07/03 02:54:34;;;;;;;5.00;3.17;;;512.30;1868.80;;;;;;4991900;28;20145;-77
2021/07/03 02:57:00;;;;;;;4.82;3.33;;;512.20;1868.80;;;;;;4991436;28;20070;-76
2021/07/03 02:59:26;;;;;;;9.05;3.33;;;512.30;1868.80;;;;;;4978222;28;20034;-76
2021/07/03 03:01:53;;;;;;;5.22;3.40;;;512.20;1868.80;;;;;;4991995;28;20389;-76
2021/07/03 03:04:21;;;;;;;7.03;3.50;;;512.10;1894.40;;;;;;4983673;28;20388;-77
2021/07/03 03:06:47;;;;;;;6.15;3.38;;;512.00;1920.00;;;;;;4973326;28;20042;-76
2021/07/03 03:09:14;;;;;;;12.57;3.72;;;512.00;1920.00;;;;;;4991837;28;20022;-77
2021/07/03 03:11:40;;;;;;;7.95;3.15;;;;;;;;;;4995285;28;20031;-75
2021/07/03 03:14:06;;;;;;;9.50;3.50;;;487.20;1920.00;;;;;;4981550;28;20026;-76
2021/07/03 03:16:32;;;;;;;7.35;3.38;;;487.10;1945.60;;;;;;4995635;28;20034;-75
2021/07/03 03:18:58;;;;;;;5.95;3.00;;;487.10;1920.00;;;;;;4981627;28;20025;-76
2021/07/03 03:21:24;;;;;;;6.40;3.60;;;487.10;1945.60;;;;;;4995507;28;20503;-75
2021/07/03 03:23:49;;;;;;;6.43;4.75;;;487.00;1945.60;;;;;;4995246;28;20369;-76
2021/07/03 03:26:15;;;;;;;4.35;3.15;;;487.00;1945.60;;;;;;4995292;28;20188;-76
2021/07/03 03:28:41;;;;;;;7.38;3.40;;;486.90;1945.60;;;;;;4995484;28;20039;-77
2021/07/03 03:31:07;;;;;;;4.95;3.38;;;486.90;1945.60;;;;;;4994875;28;20043;-76
2021/07/03 03:33:33;;;;;;;9.48;3.42;;;486.90;1945.60;;;;;;4995601;28;20034;-76
2021/07/03 03:36:00;;;;;;;9.23;3.60;;;486.90;1945.60;;;;;;4994880;28;20081;-76
2021/07/03 03:38:26;;;;;;;12.57;3.58;;;486.80;1971.20;;;;;;4986300;28;20133;-75
2021/07/03 03:40:52;;;;;;;4.95;2.95;;;486.80;1971.20;;;;;;4990288;28;20057;-75
2021/07/03 03:43:18;;;;;;;6.80;3.70;;;486.90;1971.20;;;;;;4995307;28;20085;-76
2021/07/03 03:45:44;;;;;;;6.38;3.30;;;486.50;1945.60;;;;;;4994959;28;20083;-76
2021/07/03 03:48:10;;;;;;;5.57;3.53;;;486.80;1945.60;;;;;;4995595;28;20035;-76
2021/07/03 03:50:36;;;;;;;5.32;3.88;;;486.80;1971.20;;;;;;4994662;28;20543;-76
2021/07/03 03:53:02;;;;;;;8.63;3.90;;;486.70;1971.20;;;;;;4994632;28;20026;-76
2021/07/03 03:55:28;;;;;;;6.88;3.58;;;486.70;1971.20;;;;;;4994836;28;20151;-75
2021/07/03 03:57:54;;;;;;;8.25;4.18;;;486.70;1971.20;;;;;;4994779;28;20109;-76
2021/07/03 04:00:21;;;;;;;5.40;3.35;;;486.70;1971.20;;;;;;4994939;28;20436;-76
2021/07/03 04:02:47;;;;;;;8.18;3.60;;;486.70;1971.20;;;;;;4994809;28;20034;-76
2021/07/03 04:05:14;;;;;;;10.10;4.18;;;486.60;1996.80;;;;;;4994589;28;20030;-76
2021/07/03 04:07:41;;;;;;;8.63;4.18;;;486.70;1971.20;;;;;;4986878;28;20113;-77
2021/07/03 04:10:09;;;;;;;5.95;3.58;;;486.70;1971.20;;;;;;4988882;28;20027;-77
2021/07/03 04:12:35;;;;;;;5.60;3.53;;;486.70;1971.20;;;;;;4994521;28;20491;-76
2021/07/03 04:15:01;;;;;;;8.25;4.10;;;486.70;1971.20;;;;;;4994151;28;20030;-75
2021/07/03 04:17:27;;;;;;;5.25;3.58;;;486.70;1971.20;;;;;;4994622;28;20131;-76
2021/07/03 04:19:53;;;;;;;4.95;3.60;;;486.70;1996.80;;;;;;4994327;28;20034;-77
2021/07/03 04:22:19;;;;;;;13.38;4.07;;;486.70;1996.80;;;;;;4993399;28;20042;-77
2021/07/03 04:24:45;;;;;;;6.72;2.88;;;486.70;1996.80;;;;;;4994327;28;20440;-81
2021/07/03 04:27:12;;;;;;;8.07;4.00;;;486.70;1996.80;;;;;;4980682;28;20133;-77
2021/07/03 04:29:38;;;;;;;7.78;3.42;;;486.70;1996.80;;;;;;4994286;28;20133;-81
2021/07/03 04:32:04;;;;;;;5.07;3.35;;;486.70;2022.40;;;;;;4994286;28;20547;-76
2021/07/03 04:34:30;;;;;;;5.60;3.47;;;486.80;2022.40;;;;;;4993869;28;20027;-76
2021/07/03 04:36:56;;;;;;;5.25;3.72;;;486.90;1996.80;;;;;;4994082;28;20038;-75
2021/07/03 04:39:22;;;;;;;5.90;3.75;;;486.80;2022.40;;;;;;4976407;28;20037;-76
2021/07/03 04:41:49;;;;;;;5.80;3.65;;;486.80;2022.40;;;;;;4993706;28;20598;-77
2021/07/03 04:44:16;;;;;;;5.75;3.90;;;486.80;2022.40;;;;;;4994040;28;20384;-75
2021/07/03 04:46:42;;;;;;;8.70;4.05;;;486.80;2022.40;;;;;;4993742;28;20034;-76
2021/07/03 04:49:08;;;;;;;6.75;3.65;;;486.90;2022.40;;;;;;4981086;28;20023;-77
2021/07/03 04:51:34;;;;;;;5.63;3.55;;;487.00;1996.80;;;;;;4992859;28;20023;-76
2021/07/03 04:54:00;;;;;;;7.40;4.32;;;487.00;1996.80;;;;;;4993903;28;20093;-78
2021/07/03 04:56:26;;;;;;;7.18;3.38;;;486.90;2022.40;;;;;;4993342;28;20045;-75
2021/07/03 04:58:51;;;;;;;5.43;3.53;;;486.80;2048.00;;;;;;4993931;28;20027;-77
2021/07/03 05:01:17;;;;;;;6.40;3.38;;;487.00;2022.40;;;;;;4993185;28;20038;-75
2021/07/03 05:03:43;;;;;;;6.60;3.50;;;487.10;1996.80;;;;;;4990404;28;20022;-75
2021/07/03 05:06:08;;;;;;;5.60;3.45;;;487.20;1996.80;;;;;;4983089;28;20030;-74
2021/07/03 05:08:35;;;;;;;9.18;3.65;;;487.30;1996.80;;;;;;4993123;28;20030;-75
2021/07/03 05:11:01;;;;;;;11.13;3.38;;;512.00;1971.20;;;;;;4986277;28;20140;-76
2021/07/03 05:13:28;;;;;;;6.22;3.58;;;512.00;1971.20;;;;;;4973997;28;20034;-75
2021/07/03 05:15:53;;;;;;;5.03;3.60;;;512.20;1971.20;;;;;;4993023;28;20038;-76
2021/07/03 05:18:19;;;;;;;6.35;4.03;;;512.20;1971.20;;;;;;4993308;28;20084;-78
2021/07/03 05:20:45;;;;;;;13.68;8.50;;;512.20;1971.20;;;;;;4982204;28;20055;-76
2021/07/03 05:23:11;;;;;;;12.00;8.48;;;512.10;1971.20;;;;;;4973543;28;20042;-76
2021/07/03 05:25:40;;;;;;;8.20;4.95;;;512.20;1971.20;;;;;;4973641;28;20031;-77
2021/07/03 05:28:06;;;;;;;9.23;6.20;;;512.30;1945.60;;;;;;4974230;28;20045;-76
2021/07/03 05:30:32;;;;;;;7.55;4.00;;;487.30;1996.80;;;;;;4979122;28;20058;-77
2021/07/03 05:32:58;;;;;;;13.88;7.78;;;487.20;2022.40;;;;;;4973389;28;20480;-76
2021/07/03 05:35:23;;;;;;;7.90;3.97;;;487.30;1996.80;;;;;;4973418;28;20469;-75
2021/07/03 05:37:49;;;;;;;7.60;3.38;;;512.00;1996.80;;;;;;4973222;28;20049;-76
2021/07/03 05:40:16;;;;;;;5.80;3.05;;;512.20;1971.20;;;;;;4984516;28;20384;-77
2021/07/03 05:42:42;;;;;;;4.78;3.40;;;512.10;1996.80;;;;;;4964355;28;20559;-77
2021/07/03 05:45:09;;;;;;;4.78;3.20;;;512.00;1996.80;;;;;;4963093;28;20045;-78
2021/07/03 05:47:36;;;;;;;5.28;3.75;;;512.20;1996.80;;;;;;4971263;28;20030;-77
2021/07/03 05:50:04;;;;;;;6.28;4.10;;;512.10;1996.80;;;;;;4972606;28;20027;-76
2021/07/03 05:52:31;;;;;;;5.13;3.17;;;512.20;1971.20;;;;;;4981063;28;20030;-77
2021/07/03 05:54:56;;;;;;;4.95;3.35;;;512.20;1996.80;;;;;;4974663;28;20172;-76
2021/07/03 05:57:25;;;;;;;6.90;3.22;;;512.30;1996.80;;;;;;4978058;28;20053;-77
2021/07/03 05:59:50;;;;;;;7.05;3.58;;;512.60;1971.20;;;;;;4957789;28;20357;-77
2021/07/03 06:02:16;;;;;;;6.90;3.80;;;512.60;1996.80;;;;;;4976939;28;20049;-77
2021/07/03 06:04:42;;;;;;;8.07;3.53;;;512.70;1971.20;;;;;;4975064;28;20022;-76
2021/07/03 06:07:08;;;;;;;9.75;5.07;;;512.80;1945.60;;;;;;4974060;28;20516;-76
2021/07/03 06:09:33;;;;;;;6.88;4.57;;;512.90;1971.20;;;;;;4975005;28;20026;-77
2021/07/03 06:11:59;;;;;;;7.70;4.80;;;537.60;1971.20;;;;;;4976978;28;20031;-77
2021/07/03 06:14:25;;;;;;;6.85;4.97;;;537.60;1945.60;;;;;;4973026;28;20030;-77
2021/07/03 06:16:51;;;;;;;9.80;4.72;;;537.80;1945.60;;;;;;4973734;28;20383;-78
2021/07/03 06:19:19;;;;;;;7.20;4.53;;;537.80;1945.60;;;;;;4972716;28;20075;-76
2021/07/03 06:21:45;;;;;;;6.47;4.40;;;537.70;1945.60;;;;;;4972136;28;20140;-75
2021/07/03 06:24:13;;;;;;;9.18;5.60;;;538.00;1920.00;;;;;;4978231;28;20031;-78
2021/07/03 06:26:42;;;;;;;8.30;4.35;;;538.00;1920.00;;;;;;4980352;28;20027;-76
2021/07/03 06:29:08;;;;;;;9.13;4.60;;;538.10;1920.00;;;;;;4973217;28;20117;-76
2021/07/03 06:31:34;;;;;;;7.35;4.70;;;538.00;1945.60;;;;;;4977490;28;20055;-75
2021/07/03 06:33:59;;;;;;;10.90;3.75;;;538.20;1920.00;;;;;;4959978;28;20037;-75
2021/07/03 06:36:25;;;;;;;8.40;5.13;;;538.30;1920.00;;;;;;4980314;28;20040;-76
2021/07/03 06:38:51;;;;;;;9.15;4.32;;;538.20;1920.00;;;;;;4974664;28;20034;-76
2021/07/03 06:41:17;;;;;;;10.43;6.43;;;538.20;1920.00;;;;;;4974448;28;20070;-77
2021/07/03 06:43:43;;;;;;;8.50;5.38;;;538.40;1894.40;;;;;;4977326;28;20392;-76
2021/07/03 06:46:09;;;;;;;8.52;4.38;;;538.20;1920.00;;;;;;4977476;28;20042;-77
2021/07/03 06:48:35;;;;;;;9.35;4.50;;;538.40;1920.00;;;;;;4983905;28;20037;-75
2021/07/03 06:51:00;;;;;;;8.70;5.28;;;538.50;1920.00;;;;;;4978372;28;20026;-77
2021/07/03 06:53:26;;;;;;;10.65;6.72;;;538.50;1894.40;;;;;;4981748;28;20480;-76
2021/07/03 06:55:52;;;;;;;10.35;6.10;;;563.30;1894.40;;;;;;4974365;28;20254;-76
2021/07/03 06:58:18;;;;;;;5.45;3.80;;;563.40;1894.40;;;;;;4968764;28;20038;-76
2021/07/03 07:00:43;;;;;;;7.53;3.83;;;563.60;1894.40;;;;;;4987185;28;20496;-75
2021/07/03 07:03:09;;;;;;;8.25;4.47;;;563.70;1868.80;;;;;;4986582;28;20066;-76
2021/07/03 07:05:35;;;;;;;9.98;7.05;;;563.70;1894.40;;;;;;4987558;28;20034;-76
2021/07/03 07:08:01;;;;;;;7.53;5.07;;;563.80;1868.80;;;;;;4992272;28;20484;-76
2021/07/03 07:10:26;;;;;;;8.52;3.88;;;564.00;1843.20;;;;;;4994634;28;20038;-76
2021/07/03 07:12:52;;;;;;;12.57;6.22;;;564.10;1868.80;;;;;;4995215;28;20038;-77
2021/07/03 07:15:18;;;;;;;9.32;5.65;;;564.10;1817.60;;;;;;4995519;28;20110;-77
2021/07/03 07:17:44;;;;;;;6.03;4.35;;;588.80;1817.60;;;;;;4995658;28;20033;-77
2021/07/03 07:20:10;;;;;;;7.85;4.53;;;589.00;1817.60;;;;;;4977858;28;20030;-76
2021/07/03 07:22:36;;;;;;;11.00;3.70;;;589.10;1817.60;;;;;;4995524;28;20068;-77
2021/07/03 07:25:03;;;;;;;5.25;3.80;;;589.10;1792.00;;;;;;4990529;28;20050;-76
2021/07/03 07:27:29;;;;;;;6.95;3.72;;;589.00;1792.00;;;;;;4984367;28;20066;-77
2021/07/03 07:29:55;;;;;;;8.88;4.28;;;589.00;1817.60;;;;;;4988412;28;20027;-75
2021/07/03 07:32:21;;;;;;;8.15;4.68;;;589.10;1792.00;;;;;;4995283;28;20037;-84
2021/07/03 07:34:47;;;;;;;8.13;3.65;;;589.10;1792.00;;;;;;4960841;28;20039;-79
2021/07/03 07:37:12;;;;;;;11.32;4.30;;;589.40;1792.00;;;;;;4975848;28;20038;-81
2021/07/03 07:39:38;;;;;;;11.05;6.05;;;589.10;1792.00;;;;;;4975709;28;20511;-78
2021/07/03 07:42:04;;;;;;;9.27;5.15;;;589.40;1766.40;;;;;;4982780;28;20057;-79
2021/07/03 07:44:30;;;;;;;6.57;4.18;;;589.50;1740.80;;;;;;4995391;28;20038;-78
2021/07/03 07:46:56;;;;;;;4.25;3.40;;;589.60;1766.40;;;;;;4995683;28;20057;-80
2021/07/03 07:49:21;;;;;;;10.48;5.20;;;589.70;1766.40;;;;;;4977914;28;20077;-79
2021/07/03 07:51:47;;;;;;;5.32;4.32;;;614.40;1715.20;;;;;;4995314;28;20034;-80
2021/07/03 07:54:13;;;;;;;11.38;3.58;;;614.60;1740.80;;;;;;4977442;28;20030;-76
2021/07/03 07:56:39;;;;;;;5.07;3.50;;;614.80;1715.20;;;;;;4993593;28;20050;-78
2021/07/03 07:59:05;;;;;;;8.02;3.50;;;614.80;1689.60;;;;;;4988328;28;20042;-79
2021/07/03 08:01:30;;;;;;;6.38;4.50;;;614.80;1689.60;;;;;;4975376;28;20045;-79
2021/07/03 08:03:56;;;;;;;9.00;6.47;;;614.80;1664.00;;;;;;4975745;28;20031;-78
2021/07/03 08:06:22;;;;;;;5.90;3.25;;;614.90;1689.60;;;;;;4975422;28;20034;-79
2021/07/03 08:08:47;;;;;;;8.43;3.28;;;615.10;1664.00;;;;;;4974088;28;20031;-78
2021/07/03 08:11:13;;;;;;;7.38;3.20;;;615.10;1664.00;;;;;;4973731;28;20121;-79
2021/07/03 08:13:39;;;;;;;8.50;5.13;;;615.30;1638.40;;;;;;4975514;28;20039;-75
2021/07/03 08:16:05;;;;;;;8.60;6.00;;;615.30;1664.00;;;;;;4974525;28;20516;-79
2021/07/03 08:18:30;;;;;;;6.72;3.88;;;640.00;1638.40;;;;;;4975440;28;20345;-79
2021/07/03 08:20:56;;;;;;;6.30;3.40;;;615.30;1638.40;;;;;;4974549;28;20185;-80
2021/07/03 08:23:22;;;;;;;13.18;4.35;;;615.20;1664.00;;;;;;4975481;28;20049;-79
2021/07/03 08:25:48;;;;;;;5.03;3.50;;;615.30;1638.40;;;;;;4975147;28;20536;-83
2021/07/03 08:28:15;;;;;;;5.43;3.63;;;615.20;1664.00;;;;;;4975103;28;20043;-79
2021/07/03 08:30:41;;;;;;;11.65;4.07;;;615.00;1664.00;;;;;;4974788;28;20066;-78
2021/07/03 08:33:07;;;;;;;4.72;3.33;;;615.10;1638.40;;;;;;4980916;28;20038;-79
2021/07/03 08:35:32;;;;;;;6.43;3.88;;;615.10;1664.00;;;;;;4994278;28;20034;-80
2021/07/03 08:37:58;;;;;;;8.43;3.85;;;615.30;1664.00;;;;;;4994862;28;20034;-79
2021/07/03 08:40:24;;;;;;;5.88;3.33;;;640.00;1638.40;;;;;;4994110;28;20041;-79
2021/07/03 08:42:50;;;;;;;4.93;3.20;;;640.10;1638.40;;;;;;4976566;28;20129;-80
2021/07/03 08:45:16;;;;;;;6.55;3.20;;;640.10;1612.80;;;;;;4976746;28;20037;-79
2021/07/03 08:47:43;;;;;;;7.05;3.53;;;640.30;1612.80;;;;;;4993677;28;20464;-79
2021/07/03 08:50:11;;;;;;;5.30;3.63;;;615.30;1612.80;;;;;;4994001;28;20101;-79
2021/07/03 08:52:38;;;;;;;5.55;3.53;;;640.00;1612.80;;;;;;4975703;28;20038;-79
2021/07/03 08:55:09;;;;;;;9.40;3.28;;;640.10;1612.80;;;;;;4993975;28;20030;-81
2021/07/03 08:57:49;;;;;;;3.92;2.80;;;640.30;1587.20;;;;;;4993698;28;20058;-78
2021/07/03 09:00:19;;;;;;;7.25;4.43;;;640.20;1587.20;;;;;;4975861;28;20085;-80
2021/07/03 09:02:45;;;;;;;4.28;3.25;;;640.30;1587.20;;;;;;4993549;28;20047;-78
2021/07/03 09:05:25;;;;;;;609.13;442.65;;;640.40;1587.20;;;;;;4993806;28;20105;-76
2021/07/03 09:07:57;;;;;;;924.92;547.08;;;640.50;1612.80;;;;;;4993226;28;20033;-76
2021/07/03 09:10:23;;;;;;;1024.45;627.40;;;640.50;1587.20;;;;;;4976079;28;20492;-75
2021/07/03 09:12:51;;;;;;;148.73;96.68;;;640.30;1612.80;;;;;;4992879;28;20045;-77
2021/07/03 09:15:22;;;;;;;33.88;17.27;;;640.40;1612.80;;;;;;4993619;28;20497;-75
2021/07/03 09:17:50;;;;;;;18.20;11.13;;;640.40;1587.20;;;;;;4993140;28;20137;-77
2021/07/03 09:20:27;;;;;;;17.95;9.32;;;640.50;1561.60;;;;;;4993524;28;20038;-77
2021/07/03 09:23:08;;;;;;;83.88;58.15;;;640.70;1587.20;;;;;;4993161;28;20177;-80
2021/07/03 09:25:40;;;;;;;10.70;6.70;;;640.90;1561.60;;;;;;4993078;28;20034;-78
2021/07/03 09:28:16;;;;;;;15.40;9.98;;;640.60;1561.60;;;;;;4993203;28;20035;-79
2021/07/03 09:30:47;;;;;;;10.55;6.00;;;640.60;1561.60;;;;;;4975687;28;20116;-78
2021/07/03 09:33:24;;;;;;;791.55;671.20;;;640.50;1587.20;;;;;;4975075;28;20034;-81
2021/07/03 09:35:56;;;;;;;974.45;724.00;;;640.60;1561.60;;;;;;4993558;28;20108;-86
2021/07/03 09:38:31;;;;;;;459.45;364.92;;;665.70;1587.20;;;;;;4975337;28;20030;-78
2021/07/03 09:41:14;;;;;;;693.42;554.20;;;666.00;1587.20;;;;;;4993633;28;20038;-77
2021/07/03 09:43:51;;;;;;;664.33;527.90;;;666.20;1510.40;;;;;;4993105;28;20041;-77
2021/07/03 09:46:32;;;;;;;245.15;186.07;;;666.20;1510.40;;;;;;4992453;28;20077;-82
2021/07/03 09:49:07;;;;;;;1160.78;802.38;;;666.10;1510.40;;;;;;4975081;28;20030;-77
2021/07/03 09:51:48;;;;;;;74.18;52.95;;;666.30;1484.80;;;;;;4992982;28;20085;-77
2021/07/03 09:54:18;;;;;;;926.20;625.75;;;666.00;1536.00;;;;;;4979492;28;20039;-78
2021/07/03 09:56:45;;;;;;;514.63;420.55;;;666.00;1510.40;;;;;;4961142;28;20051;-82
2021/07/03 09:59:11;;;;;;;112.95;101.18;;;666.50;1510.40;;;;;;4987859;28;20046;-80
2021/07/03 10:01:42;;;;;;;38.55;31.80;;;691.20;1459.20;;;;;;4975274;28;20061;-79
2021/07/03 10:04:09;;;;;;;28.23;17.83;;;691.30;1459.20;;;;;;4970460;28;20042;-76
2021/07/03 10:06:41;;;;;;;20.00;15.18;;;666.50;1510.40;;;;;;4974421;28;20038;-84
2021/07/03 10:09:12;;;;;;;136.00;118.53;;;666.50;1510.40;;;;;;4992943;28;20084;-77
2021/07/03 10:11:45;;;;;;;48.30;37.60;;;691.20;1459.20;;;;;;4992376;28;20027;-77
2021/07/03 10:14:12;;;;;;;114.70;91.40;;;691.20;1459.20;;;;;;4992990;28;20037;-77
2021/07/03 10:16:38;;;;;;;306.67;248.60;;;691.70;1459.20;;;;;;4975063;28;20484;-78
2021/07/03 10:19:16;;;;;;;127.65;94.90;;;691.90;1408.00;;;;;;4991993;28;20030;-77
2021/07/03 10:21:44;;;;;;;201.77;167.73;;;691.80;1408.00;;;;;;4992145;28;20035;-77
2021/07/03 10:24:41;;;;;;;343.25;271.92;;;691.70;1382.40;;;;;;4974068;28;20509;-76
2021/07/03 10:27:19;;;;;;;38.58;27.88;;;691.60;1408.00;;;;;;4990809;28;20061;-77
2021/07/03 10:29:47;;;;;;;16.55;6.97;;;691.70;1433.60;;;;;;4992492;28;20058;-76
2021/07/03 10:32:39;;;;;;;13.27;11.07;;;691.60;1408.00;;;;;;4992247;28;20034;-77
2021/07/03 10:35:20;;;;;;;100.18;80.80;;;691.90;1356.80;;;;;;4968323;28;20050;-76
2021/07/03 10:37:46;;;;;;;9.63;7.57;;;691.60;1382.40;;;;;;4973659;28;20031;-77
2021/07/03 10:40:24;;;;;;;9.32;4.72;;;691.30;1382.40;;;;;;4991931;28;20056;-77
2021/07/03 10:42:51;;;;;;;7.22;5.05;;;691.50;1408.00;;;;;;4991454;28;20129;-76
2021/07/03 10:45:23;;;;;;;12.27;8.07;;;691.40;1408.00;;;;;;4988396;28;20045;-77
2021/07/03 10:47:51;;;;;;;13.20;7.47;;;691.20;1433.60;;;;;;4961205;28;20027;-75
2021/07/03 10:50:28;;;;;;;9.90;7.05;;;691.20;1433.60;;;;;;4954668;28;20244;-80
2021/07/03 10:52:55;;;;;;;6.30;5.18;;;691.80;1408.00;;;;;;4986245;28;20034;-74
2021/07/03 10:55:37;;;;;;;5.60;4.40;;;692.10;1356.80;;;;;;4973675;28;20031;-75
2021/07/03 10:58:17;;;;;;;4.63;3.70;;;716.90;1331.20;;;;;;4972703;28;20051;-76
2021/07/03 11:00:42;;;;;;;11.25;6.75;;;691.80;1356.80;;;;;;4955224;28;20038;-76
2021/07/03 11:03:16;;;;;;;9.57;5.53;;;691.90;1356.80;;;;;;4972494;28;20034;-79
2021/07/03 11:05:42;;;;;;;6.60;5.22;;;716.90;1382.40;;;;;;4972771;28;20073;-78
2021/07/03 11:08:10;;;;;;;7.38;4.70;;;717.20;1331.20;;;;;;4972552;28;20067;-79
2021/07/03 11:10:51;;;;;;;7.63;5.22;;;717.10;1356.80;;;;;;4971715;28;20413;-80
2021/07/03 11:13:19;;;;;;;11.57;5.97;;;716.80;1382.40;;;;;;4954680;28;20042;-79
2021/07/03 11:15:45;;;;;;;4.28;3.15;;;717.00;1331.20;;;;;;4962998;28;20031;-79
2021/07/03 11:18:11;;;;;;;6.57;3.70;;;717.20;1331.20;;;;;;4980612;28;20110;-79
2021/07/03 11:20:40;;;;;;;5.05;3.60;;;717.50;1331.20;;;;;;4964053;28;20042;-76
2021/07/03 11:23:06;;;;;;;5.22;3.38;;;717.20;1331.20;;;;;;4982103;28;20031;-91
2021/07/03 11:25:39;;;;;;;9.45;4.30;;;717.10;1356.80;;;;;;4983879;28;20027;-83
2021/07/03 11:28:23;;;;;;;6.05;4.00;;;716.90;1356.80;;;;;;4983158;28;20049;-79
2021/07/03 11:31:00;;;;;;;16.08;6.07;;;692.10;1331.20;;;;;;4982671;28;20402;-77
2021/07/03 11:33:27;;;;;;;11.02;4.93;;;692.00;1356.80;;;;;;4987194;28;20027;-79
2021/07/03 11:35:53;;;;;;;17.40;5.85;;;716.90;1356.80;;;;;;4959151;28;20030;-78
2021/07/03 11:38:22;;;;;;;16.65;4.90;;;717.20;1356.80;;;;;;4975931;28;20624;-81
2021/07/03 11:40:54;;;;;;;8.38;4.25;;;717.60;1280.00;;;;;;4975778;28;20046;-77
2021/07/03 11:43:21;;;;;;;4.97;3.35;;;717.70;1254.40;;;;;;4975998;28;20122;-84
2021/07/03 11:45:47;;;;;;;4.75;3.42;;;742.60;1280.00;;;;;;4975499;28;20027;-77
2021/07/03 11:48:18;;;;;;;6.35;4.72;;;742.80;1254.40;;;;;;4975956;28;20049;-74
2021/07/03 11:50:46;;;;;;;10.30;3.90;;;742.80;1305.60;;;;;;4974919;28;20038;-76
2021/07/03 11:53:14;;;;;;;7.60;3.03;;;742.60;1280.00;;;;;;4975866;28;20074;-75
2021/07/03 11:55:42;;;;;;;5.35;3.33;;;768.10;1203.20;;;;;;4975066;28;20031;-75
2021/07/03 11:58:13;;;;;;;6.57;3.50;;;793.70;1152.00;;;;;;4975277;28;20046;-74
2021/07/03 12:00:44;;;;;;;10.25;3.28;;;794.00;1152.00;;;;;;4975361;28;20042;-75
2021/07/03 12:03:11;;;;;;;4.18;3.25;;;794.20;1126.40;;;;;;4975764;28;20140;-79
2021/07/03 12:05:40;;;;;;;4.88;3.20;;;794.00;1152.00;;;;;;4958359;28;20500;-77
2021/07/03 12:08:12;;;;;;;6.55;2.60;;;794.20;1126.40;;;;;;4975519;28;20046;-80
2021/07/03 12:10:41;;;;;;;5.93;3.55;;;793.60;1177.60;;;;;;4975546;28;20110;-80
2021/07/03 12:13:29;;;;;;;8.25;2.97;;;768.90;1152.00;;;;;;4975227;28;20489;-76
2021/07/03 12:15:54;;;;;;;7.05;3.13;;;768.70;1152.00;;;;;;4975201;28;20491;-77